sensor_id;sensor_type;location;lat;lon;timestamp;pressure;altitude;pressure_sealevel;temperature;humidity
50282;BME280;36176;51.506;10.272;2023-03-14T00:01:31;97125.44;;;9.52;91.73
50282;BME280;36176;51.506;10.272;2023-03-14T00:03:58;97133.50;;;9.50;91.54
50282;BME280;36176;51.506;10.272;2023-03-14T00:06:26;97143.59;;;9.56;91.12
50282;BME280;36176;51.506;10.272;2023-03-14T00:08:53;97139.22;;;9.67;90.58
50282;BME280;36176;51.506;10.272;2023-03-14T00:11:21;97134.56;;;9.70;89.71
50282;BME280;36176;51.506;10.272;2023-03-14T00:13:49;97127.19;;;9.74;89.32
50282;BME280;36176;51.506;10.272;2023-03-14T00:16:17;97129.47;;;9.78;89.13
50282;BME280;36176;51.506;10.272;2023-03-14T00:18:45;97120.97;;;9.75;89.20
50282;BME280;36176;51.506;10.272;2023-03-14T00:21:12;97127.72;;;9.68;89.53
50282;BME280;36176;51.506;10.272;2023-03-14T00:23:40;97138.91;;;9.60;89.78
50282;BME280;36176;51.506;10.272;2023-03-14T00:26:13;97159.56;;;9.55;89.74
50282;BME280;36176;51.506;10.272;2023-03-14T00:28:41;97177.38;;;9.53;89.75
50282;BME280;36176;51.506;10.272;2023-03-14T00:31:10;97172.44;;;9.48;89.95
50282;BME280;36176;51.506;10.272;2023-03-14T00:33:37;97185.31;;;9.42;90.23
50282;BME280;36176;51.506;10.272;2023-03-14T00:36:06;97201.88;;;9.32;89.90
50282;BME280;36176;51.506;10.272;2023-03-14T00:38:36;97205.72;;;9.17;90.90
50282;BME280;36176;51.506;10.272;2023-03-14T00:41:05;97229.00;;;9.12;91.26
50282;BME280;36176;51.506;10.272;2023-03-14T00:43:33;97233.44;;;9.11;90.88
50282;BME280;36176;51.506;10.272;2023-03-14T00:46:00;97231.63;;;9.12;91.20
50282;BME280;36176;51.506;10.272;2023-03-14T00:48:27;97249.44;;;9.21;90.16
50282;BME280;36176;51.506;10.272;2023-03-14T00:50:54;97256.19;;;9.36;89.26
50282;BME280;36176;51.506;10.272;2023-03-14T00:53:22;97245.59;;;9.48;88.90
50282;BME280;36176;51.506;10.272;2023-03-14T00:55:49;97246.44;;;9.59;88.55
50282;BME280;36176;51.506;10.272;2023-03-14T00:58:17;97247.31;;;9.60;87.92
50282;BME280;36176;51.506;10.272;2023-03-14T01:00:45;97255.69;;;9.76;87.32
50282;BME280;36176;51.506;10.272;2023-03-14T01:03:14;97240.19;;;9.83;87.51
50282;BME280;36176;51.506;10.272;2023-03-14T01:05:41;97231.41;;;9.83;86.93
50282;BME280;36176;51.506;10.272;2023-03-14T01:08:08;97227.22;;;9.80;86.84
50282;BME280;36176;51.506;10.272;2023-03-14T01:10:39;97233.22;;;9.82;86.50
50282;BME280;36176;51.506;10.272;2023-03-14T01:13:07;97220.72;;;9.84;86.71
50282;BME280;36176;51.506;10.272;2023-03-14T01:15:36;97195.47;;;9.80;85.94
50282;BME280;36176;51.506;10.272;2023-03-14T01:18:03;97197.38;;;9.89;85.86
50282;BME280;36176;51.506;10.272;2023-03-14T01:20:30;97200.03;;;9.89;85.78
50282;BME280;36176;51.506;10.272;2023-03-14T01:22:57;97201.59;;;9.92;85.46
50282;BME280;36176;51.506;10.272;2023-03-14T01:25:24;97211.91;;;9.95;85.09
50282;BME280;36176;51.506;10.272;2023-03-14T01:27:51;97192.41;;;9.96;85.19
50282;BME280;36176;51.506;10.272;2023-03-14T01:30:18;97189.78;;;9.96;84.82
50282;BME280;36176;51.506;10.272;2023-03-14T01:32:45;97185.81;;;9.90;85.44
50282;BME280;36176;51.506;10.272;2023-03-14T01:35:12;97183.56;;;9.86;84.98
50282;BME280;36176;51.506;10.272;2023-03-14T01:37:39;97182.22;;;9.91;85.37
50282;BME280;36176;51.506;10.272;2023-03-14T01:40:08;97169.00;;;9.91;85.29
50282;BME280;36176;51.506;10.272;2023-03-14T01:42:36;97168.16;;;9.91;84.57
50282;BME280;36176;51.506;10.272;2023-03-14T01:45:03;97171.50;;;9.93;84.38
50282;BME280;36176;51.506;10.272;2023-03-14T01:47:30;97151.53;;;10.00;83.91
50282;BME280;36176;51.506;10.272;2023-03-14T01:50:04;97167.69;;;9.86;84.90
50282;BME280;36176;51.506;10.272;2023-03-14T01:52:43;97170.59;;;9.83;84.51
50282;BME280;36176;51.506;10.272;2023-03-14T01:55:20;97171.31;;;9.73;85.15
50282;BME280;36176;51.506;10.272;2023-03-14T01:57:51;97166.50;;;9.67;85.06
50282;BME280;36176;51.506;10.272;2023-03-14T02:00:21;97156.19;;;9.64;85.42
50282;BME280;36176;51.506;10.272;2023-03-14T02:02:55;97153.69;;;9.63;85.05
50282;BME280;36176;51.506;10.272;2023-03-14T02:05:26;97144.06;;;9.62;85.49
50282;BME280;36176;51.506;10.272;2023-03-14T02:07:56;97149.59;;;9.58;85.68
50282;BME280;36176;51.506;10.272;2023-03-14T02:10:30;97149.50;;;9.60;84.60
50282;BME280;36176;51.506;10.272;2023-03-14T02:13:02;97143.94;;;9.63;84.53
50282;BME280;36176;51.506;10.272;2023-03-14T02:15:30;97138.50;;;9.65;84.66
50282;BME280;36176;51.506;10.272;2023-03-14T02:17:58;97134.19;;;9.64;84.60
50282;BME280;36176;51.506;10.272;2023-03-14T02:20:34;97130.72;;;9.63;84.79
50282;BME280;36176;51.506;10.272;2023-03-14T02:23:04;97123.88;;;9.61;84.97
50282;BME280;36176;51.506;10.272;2023-03-14T02:25:46;97134.09;;;9.54;84.87
50282;BME280;36176;51.506;10.272;2023-03-14T02:28:15;97136.28;;;9.49;85.30
50282;BME280;36176;51.506;10.272;2023-03-14T02:30:42;97143.22;;;9.50;84.62
50282;BME280;36176;51.506;10.272;2023-03-14T02:33:13;97138.78;;;9.50;85.08
50282;BME280;36176;51.506;10.272;2023-03-14T02:35:49;97144.22;;;9.49;84.91
50282;BME280;36176;51.506;10.272;2023-03-14T02:38:36;97154.88;;;9.47;84.74
50282;BME280;36176;51.506;10.272;2023-03-14T02:41:05;97152.63;;;9.43;84.85
50282;BME280;36176;51.506;10.272;2023-03-14T02:43:32;97146.03;;;9.48;84.64
50282;BME280;36176;51.506;10.272;2023-03-14T02:46:00;97136.13;;;9.62;84.15
50282;BME280;36176;51.506;10.272;2023-03-14T02:48:38;97124.69;;;9.72;83.64
50282;BME280;36176;51.506;10.272;2023-03-14T02:51:07;97124.69;;;9.72;83.75
50282;BME280;36176;51.506;10.272;2023-03-14T02:53:36;97119.41;;;9.72;83.02
50282;BME280;36176;51.506;10.272;2023-03-14T02:56:04;97120.59;;;9.79;83.62
50282;BME280;36176;51.506;10.272;2023-03-14T02:58:31;97109.28;;;9.77;83.16
50282;BME280;36176;51.506;10.272;2023-03-14T03:00:58;97108.19;;;9.80;83.19
50282;BME280;36176;51.506;10.272;2023-03-14T03:03:26;97108.47;;;9.77;83.72
50282;BME280;36176;51.506;10.272;2023-03-14T03:05:54;97104.38;;;9.73;83.26
50282;BME280;36176;51.506;10.272;2023-03-14T03:08:23;97099.09;;;9.73;83.36
50282;BME280;36176;51.506;10.272;2023-03-14T03:10:51;97090.78;;;9.77;83.59
50282;BME280;36176;51.506;10.272;2023-03-14T03:13:19;97090.06;;;9.75;83.36
50282;BME280;36176;51.506;10.272;2023-03-14T03:15:46;97102.56;;;9.73;83.30
50282;BME280;36176;51.506;10.272;2023-03-14T03:18:13;97100.19;;;9.70;83.63
50282;BME280;36176;51.506;10.272;2023-03-14T03:20:40;97106.50;;;9.79;83.29
50282;BME280;36176;51.506;10.272;2023-03-14T03:23:07;97106.84;;;9.86;83.13
50282;BME280;36176;51.506;10.272;2023-03-14T03:25:34;97104.34;;;9.84;82.45
50282;BME280;36176;51.506;10.272;2023-03-14T03:28:01;97093.25;;;9.90;81.89
50282;BME280;36176;51.506;10.272;2023-03-14T03:30:28;97092.16;;;9.93;82.08
50282;BME280;36176;51.506;10.272;2023-03-14T03:32:55;97075.34;;;9.94;81.65
50282;BME280;36176;51.506;10.272;2023-03-14T03:35:22;97075.78;;;9.99;81.64
50282;BME280;36176;51.506;10.272;2023-03-14T03:37:49;97075.91;;;9.97;83.48
50282;BME280;36176;51.506;10.272;2023-03-14T03:40:16;97058.59;;;9.93;85.09
50282;BME280;36176;51.506;10.272;2023-03-14T03:42:43;97055.88;;;9.84;84.99
50282;BME280;36176;51.506;10.272;2023-03-14T03:45:10;97078.00;;;9.83;84.73
50282;BME280;36176;51.506;10.272;2023-03-14T03:47:37;97086.44;;;9.76;85.80
50282;BME280;36176;51.506;10.272;2023-03-14T03:50:04;97070.84;;;9.73;85.61
50282;BME280;36176;51.506;10.272;2023-03-14T03:52:31;97080.66;;;9.83;84.39
50282;BME280;36176;51.506;10.272;2023-03-14T03:54:58;97074.16;;;9.87;83.75
50282;BME280;36176;51.506;10.272;2023-03-14T03:57:25;97068.50;;;9.91;83.12
50282;BME280;36176;51.506;10.272;2023-03-14T03:59:52;97050.28;;;9.98;82.20
50282;BME280;36176;51.506;10.272;2023-03-14T04:02:19;97055.19;;;10.02;81.81
50282;BME280;36176;51.506;10.272;2023-03-14T04:04:47;97057.47;;;10.07;81.62
50282;BME280;36176;51.506;10.272;2023-03-14T04:07:14;97061.91;;;10.07;82.03
50282;BME280;36176;51.506;10.272;2023-03-14T04:09:41;97052.88;;;10.09;81.31
50282;BME280;36176;51.506;10.272;2023-03-14T04:12:08;97060.00;;;10.09;81.06
50282;BME280;36176;51.506;10.272;2023-03-14T04:14:35;97047.22;;;10.14;81.01
50282;BME280;36176;51.506;10.272;2023-03-14T04:17:02;97041.31;;;10.10;81.19
50282;BME280;36176;51.506;10.272;2023-03-14T04:19:29;97035.34;;;10.08;80.89
50282;BME280;36176;51.506;10.272;2023-03-14T04:21:56;97031.16;;;10.06;80.45
50282;BME280;36176;51.506;10.272;2023-03-14T04:24:23;97036.75;;;10.12;80.13
50282;BME280;36176;51.506;10.272;2023-03-14T04:26:50;97029.34;;;10.06;79.75
50282;BME280;36176;51.506;10.272;2023-03-14T04:29:17;97025.16;;;10.04;80.29
50282;BME280;36176;51.506;10.272;2023-03-14T04:31:44;97036.50;;;9.94;80.37
50282;BME280;36176;51.506;10.272;2023-03-14T04:34:11;97026.78;;;9.84;81.10
50282;BME280;36176;51.506;10.272;2023-03-14T04:36:38;97020.94;;;9.80;80.40
50282;BME280;36176;51.506;10.272;2023-03-14T04:39:06;97021.75;;;9.80;80.54
50282;BME280;36176;51.506;10.272;2023-03-14T04:41:51;97017.19;;;9.83;80.26
50282;BME280;36176;51.506;10.272;2023-03-14T04:44:37;97007.44;;;9.83;79.67
50282;BME280;36176;51.506;10.272;2023-03-14T04:47:25;97004.69;;;9.85;79.98
50282;BME280;36176;51.506;10.272;2023-03-14T04:50:14;97009.97;;;9.85;79.93
50282;BME280;36176;51.506;10.272;2023-03-14T04:53:06;97022.44;;;9.94;81.39
50282;BME280;36176;51.506;10.272;2023-03-14T04:55:55;97014.44;;;9.84;82.62
50282;BME280;36176;51.506;10.272;2023-03-14T04:58:42;97011.38;;;9.68;85.32
50282;BME280;36176;51.506;10.272;2023-03-14T05:01:31;97019.72;;;9.52;85.47
50282;BME280;36176;51.506;10.272;2023-03-14T05:04:20;97024.28;;;9.50;85.42
50282;BME280;36176;51.506;10.272;2023-03-14T05:07:07;97006.25;;;9.55;84.61
50282;BME280;36176;51.506;10.272;2023-03-14T05:09:55;97004.22;;;9.47;84.21
50282;BME280;36176;51.506;10.272;2023-03-14T05:12:42;97007.03;;;9.46;84.27
50282;BME280;36176;51.506;10.272;2023-03-14T05:15:30;96980.63;;;9.34;83.71
50282;BME280;36176;51.506;10.272;2023-03-14T05:18:18;97000.06;;;9.33;83.27
50282;BME280;36176;51.506;10.272;2023-03-14T05:21:05;97000.84;;;9.24;83.95
50282;BME280;36176;51.506;10.272;2023-03-14T05:23:52;96999.41;;;9.20;83.12
50282;BME280;36176;51.506;10.272;2023-03-14T05:26:40;97002.72;;;9.33;82.38
50282;BME280;36176;51.506;10.272;2023-03-14T05:29:27;96992.72;;;9.48;81.05
50282;BME280;36176;51.506;10.272;2023-03-14T05:32:15;96987.25;;;9.61;80.17
50282;BME280;36176;51.506;10.272;2023-03-14T05:35:02;96992.72;;;9.69;79.17
50282;BME280;36176;51.506;10.272;2023-03-14T05:37:49;96982.78;;;9.62;79.03
50282;BME280;36176;51.506;10.272;2023-03-14T05:40:36;96963.63;;;9.48;79.13
50282;BME280;36176;51.506;10.272;2023-03-14T05:43:24;96979.25;;;9.51;78.86
50282;BME280;36176;51.506;10.272;2023-03-14T05:46:11;96988.63;;;9.44;78.94
50282;BME280;36176;51.506;10.272;2023-03-14T05:48:59;96971.22;;;9.42;78.70
50282;BME280;36176;51.506;10.272;2023-03-14T05:51:46;96987.09;;;9.42;78.37
50282;BME280;36176;51.506;10.272;2023-03-14T05:54:34;96978.31;;;9.41;78.60
50282;BME280;36176;51.506;10.272;2023-03-14T05:57:21;96984.94;;;9.35;78.95
50282;BME280;36176;51.506;10.272;2023-03-14T06:00:09;96993.69;;;9.36;78.83
50282;BME280;36176;51.506;10.272;2023-03-14T06:02:36;96990.47;;;9.32;79.01
50282;BME280;36176;51.506;10.272;2023-03-14T06:05:03;96985.81;;;9.25;79.23
50282;BME280;36176;51.506;10.272;2023-03-14T06:07:30;96996.25;;;9.26;79.67
50282;BME280;36176;51.506;10.272;2023-03-14T06:09:57;96996.59;;;9.33;79.63
50282;BME280;36176;51.506;10.272;2023-03-14T06:12:25;97005.31;;;9.45;78.92
50282;BME280;36176;51.506;10.272;2023-03-14T06:14:52;97016.34;;;9.50;78.89
50282;BME280;36176;51.506;10.272;2023-03-14T06:17:19;97005.41;;;9.54;78.35
50282;BME280;36176;51.506;10.272;2023-03-14T06:19:46;97006.75;;;9.49;78.29
50282;BME280;36176;51.506;10.272;2023-03-14T06:22:13;97009.66;;;9.46;78.01
50282;BME280;36176;51.506;10.272;2023-03-14T06:24:40;97006.50;;;9.52;78.00
50282;BME280;36176;51.506;10.272;2023-03-14T06:27:07;96985.31;;;9.63;77.22
50282;BME280;36176;51.506;10.272;2023-03-14T06:29:34;96994.97;;;9.74;76.48
50282;BME280;36176;51.506;10.272;2023-03-14T06:32:01;96994.44;;;9.91;76.87
50282;BME280;36176;51.506;10.272;2023-03-14T06:34:27;96997.31;;;10.09;75.25
50282;BME280;36176;51.506;10.272;2023-03-14T06:36:54;96990.44;;;9.97;75.35
50282;BME280;36176;51.506;10.272;2023-03-14T06:39:21;96991.38;;;9.96;75.29
50282;BME280;36176;51.506;10.272;2023-03-14T06:41:48;96987.13;;;10.05;74.96
50282;BME280;36176;51.506;10.272;2023-03-14T06:44:15;96979.25;;;10.14;74.79
50282;BME280;36176;51.506;10.272;2023-03-14T06:46:42;96975.50;;;10.17;74.87
50282;BME280;36176;51.506;10.272;2023-03-14T06:49:09;96983.03;;;10.21;74.01
50282;BME280;36176;51.506;10.272;2023-03-14T06:51:36;96983.19;;;10.20;73.82
50282;BME280;36176;51.506;10.272;2023-03-14T06:54:03;96982.19;;;10.32;73.32
50282;BME280;36176;51.506;10.272;2023-03-14T06:56:30;96984.94;;;10.31;73.68
50282;BME280;36176;51.506;10.272;2023-03-14T06:58:57;96992.78;;;10.32;73.99
50282;BME280;36176;51.506;10.272;2023-03-14T07:01:28;96980.53;;;10.41;73.51
50282;BME280;36176;51.506;10.272;2023-03-14T07:03:56;96978.28;;;10.36;74.13
50282;BME280;36176;51.506;10.272;2023-03-14T07:06:24;96992.19;;;10.29;74.41
50282;BME280;36176;51.506;10.272;2023-03-14T07:08:52;96990.84;;;10.34;73.79
50282;BME280;36176;51.506;10.272;2023-03-14T07:11:19;96997.84;;;10.45;74.15
50282;BME280;36176;51.506;10.272;2023-03-14T07:13:46;96997.94;;;10.74;74.27
50282;BME280;36176;51.506;10.272;2023-03-14T07:16:13;96997.59;;;10.89;73.86
50282;BME280;36176;51.506;10.272;2023-03-14T07:18:41;96997.16;;;10.83;74.30
50282;BME280;36176;51.506;10.272;2023-03-14T07:21:08;96999.94;;;10.82;74.46
50282;BME280;36176;51.506;10.272;2023-03-14T07:23:36;97004.97;;;10.85;75.08
50282;BME280;36176;51.506;10.272;2023-03-14T07:26:03;97010.41;;;10.83;75.24
50282;BME280;36176;51.506;10.272;2023-03-14T07:28:30;97011.06;;;10.76;76.20
50282;BME280;36176;51.506;10.272;2023-03-14T07:30:57;97012.75;;;10.77;76.37
50282;BME280;36176;51.506;10.272;2023-03-14T07:33:24;97006.91;;;10.83;75.18
50282;BME280;36176;51.506;10.272;2023-03-14T07:35:51;97012.56;;;10.99;75.05
50282;BME280;36176;51.506;10.272;2023-03-14T07:38:18;97021.34;;;11.10;74.26
50282;BME280;36176;51.506;10.272;2023-03-14T07:40:48;97026.34;;;11.03;74.50
50282;BME280;36176;51.506;10.272;2023-03-14T07:43:15;97029.28;;;11.00;74.31
50282;BME280;36176;51.506;10.272;2023-03-14T07:45:45;97032.50;;;11.03;74.13
50282;BME280;36176;51.506;10.272;2023-03-14T07:48:16;97030.72;;;11.14;73.46
50282;BME280;36176;51.506;10.272;2023-03-14T07:50:43;97033.81;;;11.19;73.34
50282;BME280;36176;51.506;10.272;2023-03-14T07:53:10;97015.97;;;11.21;72.88
50282;BME280;36176;51.506;10.272;2023-03-14T07:55:39;97023.59;;;11.14;72.15
50282;BME280;36176;51.506;10.272;2023-03-14T07:58:06;97019.97;;;11.15;72.43
50282;BME280;36176;51.506;10.272;2023-03-14T08:00:33;97029.91;;;11.23;72.92
50282;BME280;36176;51.506;10.272;2023-03-14T08:03:00;97028.94;;;11.24;72.91
50282;BME280;36176;51.506;10.272;2023-03-14T08:05:27;97023.91;;;11.21;72.74
50282;BME280;36176;51.506;10.272;2023-03-14T08:07:54;97022.34;;;11.09;73.11
50282;BME280;36176;51.506;10.272;2023-03-14T08:10:22;97013.53;;;11.08;73.08
50282;BME280;36176;51.506;10.272;2023-03-14T08:12:54;97008.09;;;11.00;72.39
50282;BME280;36176;51.506;10.272;2023-03-14T08:15:22;97011.84;;;10.97;73.24
50282;BME280;36176;51.506;10.272;2023-03-14T08:17:50;97005.84;;;10.95;73.06
50282;BME280;36176;51.506;10.272;2023-03-14T08:20:18;97013.25;;;11.01;73.61
50282;BME280;36176;51.506;10.272;2023-03-14T08:22:45;97011.03;;;11.06;73.17
50282;BME280;36176;51.506;10.272;2023-03-14T08:25:12;96998.22;;;11.12;72.26
50282;BME280;36176;51.506;10.272;2023-03-14T08:27:39;96995.00;;;11.18;72.93
50282;BME280;36176;51.506;10.272;2023-03-14T08:30:13;96992.66;;;11.34;72.11
50282;BME280;36176;51.506;10.272;2023-03-14T08:32:41;96986.41;;;11.64;71.68
50282;BME280;36176;51.506;10.272;2023-03-14T08:35:10;96979.28;;;11.84;70.39
50282;BME280;36176;51.506;10.272;2023-03-14T08:37:37;96989.63;;;11.87;70.53
50282;BME280;36176;51.506;10.272;2023-03-14T08:40:05;96986.84;;;11.99;69.97
50282;BME280;36176;51.506;10.272;2023-03-14T08:42:33;97003.03;;;12.05;70.51
50282;BME280;36176;51.506;10.272;2023-03-14T08:45:00;97005.81;;;12.04;69.39
50282;BME280;36176;51.506;10.272;2023-03-14T08:47:27;97016.00;;;12.08;69.60
50282;BME280;36176;51.506;10.272;2023-03-14T08:49:54;97005.41;;;11.99;69.90
50282;BME280;36176;51.506;10.272;2023-03-14T08:52:21;97021.91;;;12.02;69.86
50282;BME280;36176;51.506;10.272;2023-03-14T08:54:48;97028.44;;;12.08;70.13
50282;BME280;36176;51.506;10.272;2023-03-14T08:57:17;97006.09;;;12.01;69.61
50282;BME280;36176;51.506;10.272;2023-03-14T08:59:44;97023.69;;;11.92;70.62
50282;BME280;36176;51.506;10.272;2023-03-14T09:02:11;97022.03;;;11.91;70.04
50282;BME280;36176;51.506;10.272;2023-03-14T09:04:39;97018.56;;;11.90;70.48
50282;BME280;36176;51.506;10.272;2023-03-14T09:07:06;97039.47;;;11.74;71.00
50282;BME280;36176;51.506;10.272;2023-03-14T09:09:33;97031.34;;;11.46;71.19
50282;BME280;36176;51.506;10.272;2023-03-14T09:12:00;97033.84;;;11.38;71.76
50282;BME280;36176;51.506;10.272;2023-03-14T09:14:27;97041.91;;;11.27;72.77
50282;BME280;36176;51.506;10.272;2023-03-14T09:16:54;97044.31;;;11.40;73.28
50282;BME280;36176;51.506;10.272;2023-03-14T09:19:21;97038.53;;;11.25;72.38
50282;BME280;36176;51.506;10.272;2023-03-14T09:21:48;97034.75;;;11.18;72.78
50282;BME280;36176;51.506;10.272;2023-03-14T09:24:16;97034.19;;;11.04;73.33
50282;BME280;36176;51.506;10.272;2023-03-14T09:26:44;97035.44;;;11.10;74.00
50282;BME280;36176;51.506;10.272;2023-03-14T09:29:11;97034.88;;;11.06;73.84
50282;BME280;36176;51.506;10.272;2023-03-14T09:31:38;97026.81;;;11.18;74.44
50282;BME280;36176;51.506;10.272;2023-03-14T09:34:05;97027.72;;;11.38;74.33
50282;BME280;36176;51.506;10.272;2023-03-14T09:36:32;97023.97;;;11.60;73.44
50282;BME280;36176;51.506;10.272;2023-03-14T09:38:59;97020.59;;;12.26;72.42
50282;BME280;36176;51.506;10.272;2023-03-14T09:41:31;97020.91;;;12.70;69.19
50282;BME280;36176;51.506;10.272;2023-03-14T09:44:05;97009.34;;;13.16;68.58
50282;BME280;36176;51.506;10.272;2023-03-14T09:46:35;97016.81;;;13.58;66.40
50282;BME280;36176;51.506;10.272;2023-03-14T09:49:10;97012.34;;;13.59;66.49
50282;BME280;36176;51.506;10.272;2023-03-14T09:51:39;96996.94;;;14.07;65.55
50282;BME280;36176;51.506;10.272;2023-03-14T09:54:24;97010.63;;;14.30;64.46
50282;BME280;36176;51.506;10.272;2023-03-14T09:56:54;97018.19;;;13.98;63.83
50282;BME280;36176;51.506;10.272;2023-03-14T09:59:21;97015.00;;;13.77;64.64
50282;BME280;36176;51.506;10.272;2023-03-14T10:01:48;97020.19;;;13.33;65.31
50282;BME280;36176;51.506;10.272;2023-03-14T10:04:21;97025.59;;;13.13;65.40
50282;BME280;36176;51.506;10.272;2023-03-14T10:06:49;97019.59;;;13.11;66.08
50282;BME280;36176;51.506;10.272;2023-03-14T10:09:20;97026.59;;;13.12;66.58
50282;BME280;36176;51.506;10.272;2023-03-14T10:11:55;97023.34;;;13.18;66.76
50282;BME280;36176;51.506;10.272;2023-03-14T10:14:34;97029.34;;;13.20;67.33
50282;BME280;36176;51.506;10.272;2023-03-14T10:17:12;97018.75;;;13.11;67.48
50282;BME280;36176;51.506;10.272;2023-03-14T10:19:54;97015.59;;;12.97;68.51
50282;BME280;36176;51.506;10.272;2023-03-14T10:22:25;97030.63;;;12.89;67.08
50282;BME280;36176;51.506;10.272;2023-03-14T10:24:55;97023.03;;;12.94;68.17
50282;BME280;36176;51.506;10.272;2023-03-14T10:27:30;97031.63;;;13.15;67.50
50282;BME280;36176;51.506;10.272;2023-03-14T10:29:59;97019.50;;;13.31;65.78
50282;BME280;36176;51.506;10.272;2023-03-14T10:32:31;97038.28;;;13.75;66.35
50282;BME280;36176;51.506;10.272;2023-03-14T10:37:35;97033.91;;;13.74;64.65
50282;BME280;36176;51.506;10.272;2023-03-14T10:40:04;97033.50;;;13.33;65.39
50282;BME280;36176;51.506;10.272;2023-03-14T10:42:34;97030.84;;;13.05;67.52
50282;BME280;36176;51.506;10.272;2023-03-14T10:45:20;97032.25;;;12.99;68.11
50282;BME280;36176;51.506;10.272;2023-03-14T10:47:50;97021.09;;;12.96;68.78
50282;BME280;36176;51.506;10.272;2023-03-14T10:50:26;97028.00;;;13.07;67.94
50282;BME280;36176;51.506;10.272;2023-03-14T10:52:55;97017.88;;;12.92;67.75
50282;BME280;36176;51.506;10.272;2023-03-14T10:55:42;97019.28;;;12.87;67.81
50282;BME280;36176;51.506;10.272;2023-03-14T10:58:25;97024.31;;;12.90;68.11
50282;BME280;36176;51.506;10.272;2023-03-14T11:01:02;97026.22;;;12.97;67.93
50282;BME280;36176;51.506;10.272;2023-03-14T11:03:34;97022.03;;;12.95;67.37
50282;BME280;36176;51.506;10.272;2023-03-14T11:06:12;97026.47;;;12.76;68.38
50282;BME280;36176;51.506;10.272;2023-03-14T11:09:02;97019.13;;;12.61;68.43
50282;BME280;36176;51.506;10.272;2023-03-14T11:11:33;97017.59;;;12.58;69.46
50282;BME280;36176;51.506;10.272;2023-03-14T11:17:15;97021.00;;;12.78;68.57
50282;BME280;36176;51.506;10.272;2023-03-14T11:19:59;97023.97;;;12.75;69.20
50282;BME280;36176;51.506;10.272;2023-03-14T11:22:43;97020.34;;;12.66;71.09
50282;BME280;36176;51.506;10.272;2023-03-14T11:25:33;97012.25;;;12.68;71.78
50282;BME280;36176;51.506;10.272;2023-03-14T11:28:14;97025.13;;;12.90;72.20
50282;BME280;36176;51.506;10.272;2023-03-14T11:33:47;97017.16;;;13.00;69.00
50282;BME280;36176;51.506;10.272;2023-03-14T11:36:38;97023.56;;;13.07;69.88
50282;BME280;36176;51.506;10.272;2023-03-14T11:39:17;97013.31;;;13.12;69.69
50282;BME280;36176;51.506;10.272;2023-03-14T11:41:47;97007.78;;;12.96;69.33
50282;BME280;36176;51.506;10.272;2023-03-14T11:47:07;97007.50;;;13.27;69.33
50282;BME280;36176;51.506;10.272;2023-03-14T11:49:45;97000.69;;;13.14;68.83
50282;BME280;36176;51.506;10.272;2023-03-14T11:55:47;97005.63;;;12.82;70.44
50282;BME280;36176;51.506;10.272;2023-03-14T11:58:29;97003.50;;;12.85;70.19
50282;BME280;36176;51.506;10.272;2023-03-14T12:01:02;96993.31;;;13.08;68.70
50282;BME280;36176;51.506;10.272;2023-03-14T12:03:43;96999.94;;;13.32;69.95
50282;BME280;36176;51.506;10.272;2023-03-14T12:06:31;96997.97;;;13.52;68.57
50282;BME280;36176;51.506;10.272;2023-03-14T12:09:02;96990.06;;;13.42;68.66
50282;BME280;36176;51.506;10.272;2023-03-14T12:11:36;96994.31;;;13.35;69.78
50282;BME280;36176;51.506;10.272;2023-03-14T12:14:25;96985.13;;;13.29;69.23
50282;BME280;36176;51.506;10.272;2023-03-14T12:16:57;96990.44;;;13.29;68.84
50282;BME280;36176;51.506;10.272;2023-03-14T12:19:29;96985.66;;;13.23;67.99
50282;BME280;36176;51.506;10.272;2023-03-14T12:22:23;96979.41;;;13.14;68.08
50282;BME280;36176;51.506;10.272;2023-03-14T12:24:56;96973.50;;;13.03;67.42
50282;BME280;36176;51.506;10.272;2023-03-14T12:27:47;96974.50;;;12.92;69.02
50282;BME280;36176;51.506;10.272;2023-03-14T12:35:43;96978.66;;;12.76;70.01
50282;BME280;36176;51.506;10.272;2023-03-14T12:38:23;96977.31;;;12.63;72.02
50282;BME280;36176;51.506;10.272;2023-03-14T12:41:11;96991.38;;;12.36;75.82
50282;BME280;36176;51.506;10.272;2023-03-14T12:43:41;96991.59;;;12.05;77.91
50282;BME280;36176;51.506;10.272;2023-03-14T12:48:46;97018.53;;;11.71;81.30
50282;BME280;36176;51.506;10.272;2023-03-14T12:51:16;97036.09;;;11.53;83.00
50282;BME280;36176;51.506;10.272;2023-03-14T12:54:06;97075.06;;;11.12;86.34
50282;BME280;36176;51.506;10.272;2023-03-14T12:56:57;97123.59;;;10.07;91.88
50282;BME280;36176;51.506;10.272;2023-03-14T12:59:45;97108.91;;;9.39;90.87
50282;BME280;36176;51.506;10.272;2023-03-14T13:02:37;97124.78;;;8.93;91.25
50282;BME280;36176;51.506;10.272;2023-03-14T13:05:12;97138.09;;;8.69;91.79
50282;BME280;36176;51.506;10.272;2023-03-14T13:12:40;97167.47;;;8.65;93.35
50282;BME280;36176;51.506;10.272;2023-03-14T13:15:22;97203.31;;;8.56;94.27
50282;BME280;36176;51.506;10.272;2023-03-14T13:17:51;97217.72;;;8.39;91.54
50282;BME280;36176;51.506;10.272;2023-03-14T13:21:26;97226.81;;;7.87;88.64
50282;BME280;36176;51.506;10.272;2023-03-14T13:23:30;97242.28;;;7.55;90.21
50282;BME280;36176;51.506;10.272;2023-03-14T13:25:59;97272.25;;;7.41;90.68
50282;BME280;36176;51.506;10.272;2023-03-14T13:28:29;97287.75;;;7.33;92.07
50282;BME280;36176;51.506;10.272;2023-03-14T13:31:03;97289.31;;;7.10;91.38
50282;BME280;36176;51.506;10.272;2023-03-14T13:33:33;97300.00;;;6.81;91.95
50282;BME280;36176;51.506;10.272;2023-03-14T13:36:04;97321.94;;;6.54;90.78
50282;BME280;36176;51.506;10.272;2023-03-14T13:38:34;97335.50;;;6.34;91.48
50282;BME280;36176;51.506;10.272;2023-03-14T13:41:07;97345.78;;;6.24;92.62
50282;BME280;36176;51.506;10.272;2023-03-14T13:43:41;97361.00;;;6.19;91.41
50282;BME280;36176;51.506;10.272;2023-03-14T13:46:21;97382.59;;;6.10;90.32
50282;BME280;36176;51.506;10.272;2023-03-14T13:49:02;97404.41;;;5.97;90.80